sensor_id;sensor_type;location;lat;lon;timestamp;P1;durP1;ratioP1;P2;durP2;ratioP2
6251;SDS011;3159;52.414;9.784;2023-11-19T00:00:51;0.60;;;0.60;;
6251;SDS011;3159;52.414;9.784;2023-11-19T00:03:18;0.90;;;0.90;;
6251;SDS011;3159;52.414;9.784;2023-11-19T00:05:45;0.77;;;0.77;;
6251;SDS011;3159;52.414;9.784;2023-11-19T00:08:12;0.90;;;0.90;;
6251;SDS011;3159;52.414;9.784;2023-11-19T00:10:39;0.90;;;0.90;;
6251;SDS011;3159;52.414;9.784;2023-11-19T00:13:06;1.03;;;0.93;;
6251;SDS011;3159;52.414;9.784;2023-11-19T00:15:33;0.80;;;0.80;;
6251;SDS011;3159;52.414;9.784;2023-11-19T00:18:01;0.90;;;0.90;;
6251;SDS011;3159;52.414;9.784;2023-11-19T00:20:29;0.80;;;0.80;;
6251;SDS011;3159;52.414;9.784;2023-11-19T00:22:56;1.00;;;1.00;;
6251;SDS011;3159;52.414;9.784;2023-11-19T00:25:23;0.83;;;0.83;;
6251;SDS011;3159;52.414;9.784;2023-11-19T00:27:50;2.27;;;0.80;;
6251;SDS011;3159;52.414;9.784;2023-11-19T00:30:18;1.03;;;0.80;;
6251;SDS011;3159;52.414;9.784;2023-11-19T00:32:45;0.70;;;0.70;;
6251;SDS011;3159;52.414;9.784;2023-11-19T00:35:13;0.80;;;0.80;;
6251;SDS011;3159;52.414;9.784;2023-11-19T00:37:40;1.13;;;0.80;;
6251;SDS011;3159;52.414;9.784;2023-11-19T00:40:10;0.90;;;0.90;;
6251;SDS011;3159;52.414;9.784;2023-11-19T00:42:37;0.73;;;0.70;;
6251;SDS011;3159;52.414;9.784;2023-11-19T00:45:04;1.10;;;1.00;;
6251;SDS011;3159;52.414;9.784;2023-11-19T00:47:35;2.30;;;0.90;;
6251;SDS011;3159;52.414;9.784;2023-11-19T00:50:02;0.77;;;0.77;;
6251;SDS011;3159;52.414;9.784;2023-11-19T00:52:30;1.27;;;0.70;;
6251;SDS011;3159;52.414;9.784;2023-11-19T00:54:57;0.87;;;0.87;;
6251;SDS011;3159;52.414;9.784;2023-11-19T00:57:24;0.97;;;0.87;;
6251;SDS011;3159;52.414;9.784;2023-11-19T00:59:51;1.43;;;1.00;;
6251;SDS011;3159;52.414;9.784;2023-11-19T01:02:18;1.13;;;1.10;;
6251;SDS011;3159;52.414;9.784;2023-11-19T01:04:45;0.80;;;0.80;;
6251;SDS011;3159;52.414;9.784;2023-11-19T01:07:12;0.87;;;0.87;;
6251;SDS011;3159;52.414;9.784;2023-11-19T01:09:41;0.70;;;0.70;;
6251;SDS011;3159;52.414;9.784;2023-11-19T01:12:08;0.90;;;0.90;;
6251;SDS011;3159;52.414;9.784;2023-11-19T01:14:35;1.60;;;1.07;;
6251;SDS011;3159;52.414;9.784;2023-11-19T01:17:02;1.20;;;0.87;;
6251;SDS011;3159;52.414;9.784;2023-11-19T01:19:29;1.13;;;0.83;;
6251;SDS011;3159;52.414;9.784;2023-11-19T01:21:56;0.60;;;0.60;;
6251;SDS011;3159;52.414;9.784;2023-11-19T01:24:23;0.97;;;0.77;;
6251;SDS011;3159;52.414;9.784;2023-11-19T01:26:54;0.67;;;0.67;;
6251;SDS011;3159;52.414;9.784;2023-11-19T01:29:22;0.87;;;0.70;;
6251;SDS011;3159;52.414;9.784;2023-11-19T01:31:49;0.80;;;0.80;;
6251;SDS011;3159;52.414;9.784;2023-11-19T01:34:17;0.80;;;0.80;;
6251;SDS011;3159;52.414;9.784;2023-11-19T01:36:46;0.80;;;0.70;;
6251;SDS011;3159;52.414;9.784;2023-11-19T01:39:13;0.97;;;0.83;;
6251;SDS011;3159;52.414;9.784;2023-11-19T01:41:42;1.23;;;1.00;;
6251;SDS011;3159;52.414;9.784;2023-11-19T01:44:10;0.80;;;0.70;;
6251;SDS011;3159;52.414;9.784;2023-11-19T01:46:38;1.07;;;0.90;;
6251;SDS011;3159;52.414;9.784;2023-11-19T01:49:06;0.83;;;0.63;;
6251;SDS011;3159;52.414;9.784;2023-11-19T01:51:34;0.73;;;0.70;;
6251;SDS011;3159;52.414;9.784;2023-11-19T01:54:02;0.87;;;0.87;;
6251;SDS011;3159;52.414;9.784;2023-11-19T01:56:29;0.67;;;0.60;;
6251;SDS011;3159;52.414;9.784;2023-11-19T01:58:58;0.60;;;0.60;;
6251;SDS011;3159;52.414;9.784;2023-11-19T02:01:26;0.70;;;0.70;;
6251;SDS011;3159;52.414;9.784;2023-11-19T02:03:54;0.70;;;0.70;;
6251;SDS011;3159;52.414;9.784;2023-11-19T02:06:23;0.87;;;0.83;;
6251;SDS011;3159;52.414;9.784;2023-11-19T02:08:51;0.57;;;0.53;;
6251;SDS011;3159;52.414;9.784;2023-11-19T02:11:18;1.47;;;0.70;;
6251;SDS011;3159;52.414;9.784;2023-11-19T02:13:45;1.47;;;0.70;;
6251;SDS011;3159;52.414;9.784;2023-11-19T02:16:12;0.60;;;0.60;;
6251;SDS011;3159;52.414;9.784;2023-11-19T02:18:40;0.63;;;0.63;;
6251;SDS011;3159;52.414;9.784;2023-11-19T02:21:08;1.83;;;0.80;;
6251;SDS011;3159;52.414;9.784;2023-11-19T02:23:35;2.20;;;0.60;;
6251;SDS011;3159;52.414;9.784;2023-11-19T02:26:03;1.90;;;0.70;;
6251;SDS011;3159;52.414;9.784;2023-11-19T02:28:40;0.50;;;0.50;;
6251;SDS011;3159;52.414;9.784;2023-11-19T02:31:08;0.70;;;0.70;;
6251;SDS011;3159;52.414;9.784;2023-11-19T02:33:35;0.70;;;0.70;;
6251;SDS011;3159;52.414;9.784;2023-11-19T02:36:02;0.63;;;0.50;;
6251;SDS011;3159;52.414;9.784;2023-11-19T02:38:30;1.00;;;0.50;;
6251;SDS011;3159;52.414;9.784;2023-11-19T02:40:57;1.07;;;0.70;;
6251;SDS011;3159;52.414;9.784;2023-11-19T02:43:23;0.67;;;0.67;;
6251;SDS011;3159;52.414;9.784;2023-11-19T02:45:51;0.50;;;0.47;;
6251;SDS011;3159;52.414;9.784;2023-11-19T02:48:20;0.37;;;0.37;;
6251;SDS011;3159;52.414;9.784;2023-11-19T02:50:47;0.30;;;0.30;;
6251;SDS011;3159;52.414;9.784;2023-11-19T02:53:14;0.77;;;0.47;;
6251;SDS011;3159;52.414;9.784;2023-11-19T02:55:41;0.50;;;0.40;;
6251;SDS011;3159;52.414;9.784;2023-11-19T02:58:13;0.70;;;0.40;;
6251;SDS011;3159;52.414;9.784;2023-11-19T03:00:48;0.73;;;0.40;;
6251;SDS011;3159;52.414;9.784;2023-11-19T03:03:23;0.30;;;0.30;;
6251;SDS011;3159;52.414;9.784;2023-11-19T03:05:53;0.70;;;0.30;;
6251;SDS011;3159;52.414;9.784;2023-11-19T03:08:20;0.30;;;0.30;;
6251;SDS011;3159;52.414;9.784;2023-11-19T03:10:47;0.30;;;0.30;;
6251;SDS011;3159;52.414;9.784;2023-11-19T03:13:14;0.50;;;0.50;;
6251;SDS011;3159;52.414;9.784;2023-11-19T03:15:42;0.30;;;0.30;;
6251;SDS011;3159;52.414;9.784;2023-11-19T03:18:08;1.47;;;0.40;;
6251;SDS011;3159;52.414;9.784;2023-11-19T03:20:37;0.50;;;0.50;;
6251;SDS011;3159;52.414;9.784;2023-11-19T03:23:03;0.50;;;0.50;;
6251;SDS011;3159;52.414;9.784;2023-11-19T03:25:31;0.67;;;0.63;;
6251;SDS011;3159;52.414;9.784;2023-11-19T03:27:59;0.50;;;0.50;;
6251;SDS011;3159;52.414;9.784;2023-11-19T03:30:27;0.70;;;0.70;;
6251;SDS011;3159;52.414;9.784;2023-11-19T03:32:55;1.00;;;0.70;;
6251;SDS011;3159;52.414;9.784;2023-11-19T03:35:22;1.07;;;0.60;;
6251;SDS011;3159;52.414;9.784;2023-11-19T03:37:50;1.47;;;1.00;;
6251;SDS011;3159;52.414;9.784;2023-11-19T03:40:17;0.60;;;0.60;;
6251;SDS011;3159;52.414;9.784;2023-11-19T03:42:45;0.80;;;0.77;;
6251;SDS011;3159;52.414;9.784;2023-11-19T03:45:12;0.50;;;0.50;;
6251;SDS011;3159;52.414;9.784;2023-11-19T03:47:39;0.70;;;0.57;;
6251;SDS011;3159;52.414;9.784;2023-11-19T03:50:06;3.30;;;0.80;;
6251;SDS011;3159;52.414;9.784;2023-11-19T03:52:34;0.73;;;0.73;;
6251;SDS011;3159;52.414;9.784;2023-11-19T03:55:02;0.80;;;0.80;;
6251;SDS011;3159;52.414;9.784;2023-11-19T03:57:30;1.30;;;0.90;;
6251;SDS011;3159;52.414;9.784;2023-11-19T03:59:56;1.53;;;1.03;;
6251;SDS011;3159;52.414;9.784;2023-11-19T04:02:24;1.50;;;1.00;;
6251;SDS011;3159;52.414;9.784;2023-11-19T04:04:52;0.90;;;0.90;;
6251;SDS011;3159;52.414;9.784;2023-11-19T04:07:20;1.40;;;1.10;;
6251;SDS011;3159;52.414;9.784;2023-11-19T04:09:47;0.90;;;0.60;;
6251;SDS011;3159;52.414;9.784;2023-11-19T04:12:15;1.10;;;1.00;;
6251;SDS011;3159;52.414;9.784;2023-11-19T04:14:42;1.73;;;0.90;;
6251;SDS011;3159;52.414;9.784;2023-11-19T04:17:09;1.20;;;1.10;;
6251;SDS011;3159;52.414;9.784;2023-11-19T04:19:36;0.87;;;0.87;;
6251;SDS011;3159;52.414;9.784;2023-11-19T04:22:03;1.27;;;1.17;;
6251;SDS011;3159;52.414;9.784;2023-11-19T04:24:30;1.30;;;1.20;;
6251;SDS011;3159;52.414;9.784;2023-11-19T04:26:56;0.90;;;0.90;;
6251;SDS011;3159;52.414;9.784;2023-11-19T04:29:24;2.10;;;1.10;;
6251;SDS011;3159;52.414;9.784;2023-11-19T04:31:51;1.00;;;1.00;;
6251;SDS011;3159;52.414;9.784;2023-11-19T04:34:18;1.70;;;1.20;;
6251;SDS011;3159;52.414;9.784;2023-11-19T04:36:45;1.70;;;1.60;;
6251;SDS011;3159;52.414;9.784;2023-11-19T04:39:11;1.60;;;1.40;;
6251;SDS011;3159;52.414;9.784;2023-11-19T04:41:46;1.63;;;1.40;;
6251;SDS011;3159;52.414;9.784;2023-11-19T04:44:14;1.97;;;1.77;;
6251;SDS011;3159;52.414;9.784;2023-11-19T04:46:43;1.80;;;1.70;;
6251;SDS011;3159;52.414;9.784;2023-11-19T04:49:10;2.23;;;2.03;;
6251;SDS011;3159;52.414;9.784;2023-11-19T04:51:38;2.57;;;2.23;;
6251;SDS011;3159;52.414;9.784;2023-11-19T04:54:06;3.27;;;2.30;;
6251;SDS011;3159;52.414;9.784;2023-11-19T04:56:33;3.70;;;2.53;;
6251;SDS011;3159;52.414;9.784;2023-11-19T04:59:00;3.37;;;2.60;;
6251;SDS011;3159;52.414;9.784;2023-11-19T05:01:27;2.83;;;2.50;;
6251;SDS011;3159;52.414;9.784;2023-11-19T05:03:55;3.17;;;2.27;;
6251;SDS011;3159;52.414;9.784;2023-11-19T05:06:25;3.17;;;2.87;;
6251;SDS011;3159;52.414;9.784;2023-11-19T05:08:53;2.63;;;2.33;;
6251;SDS011;3159;52.414;9.784;2023-11-19T05:11:20;2.50;;;2.30;;
6251;SDS011;3159;52.414;9.784;2023-11-19T05:13:47;3.77;;;2.53;;
6251;SDS011;3159;52.414;9.784;2023-11-19T05:16:13;2.73;;;2.47;;
6251;SDS011;3159;52.414;9.784;2023-11-19T05:18:40;3.27;;;2.97;;
6251;SDS011;3159;52.414;9.784;2023-11-19T05:21:08;3.67;;;3.20;;
6251;SDS011;3159;52.414;9.784;2023-11-19T05:23:35;3.37;;;2.90;;
6251;SDS011;3159;52.414;9.784;2023-11-19T05:26:02;4.60;;;3.27;;
6251;SDS011;3159;52.414;9.784;2023-11-19T05:28:30;3.37;;;3.07;;
6251;SDS011;3159;52.414;9.784;2023-11-19T05:30:57;4.13;;;3.10;;
6251;SDS011;3159;52.414;9.784;2023-11-19T05:33:23;3.40;;;3.03;;
6251;SDS011;3159;52.414;9.784;2023-11-19T05:35:50;4.17;;;3.20;;
6251;SDS011;3159;52.414;9.784;2023-11-19T05:38:18;3.97;;;2.93;;
6251;SDS011;3159;52.414;9.784;2023-11-19T05:40:46;3.63;;;2.93;;
6251;SDS011;3159;52.414;9.784;2023-11-19T05:43:14;3.83;;;2.83;;
6251;SDS011;3159;52.414;9.784;2023-11-19T05:45:41;3.17;;;2.87;;
6251;SDS011;3159;52.414;9.784;2023-11-19T05:48:08;4.30;;;2.97;;
6251;SDS011;3159;52.414;9.784;2023-11-19T05:50:35;4.73;;;3.13;;
6251;SDS011;3159;52.414;9.784;2023-11-19T05:53:02;5.87;;;3.70;;
6251;SDS011;3159;52.414;9.784;2023-11-19T05:55:33;3.87;;;3.40;;
6251;SDS011;3159;52.414;9.784;2023-11-19T05:58:01;7.07;;;4.00;;
6251;SDS011;3159;52.414;9.784;2023-11-19T06:00:29;10.80;;;4.33;;
6251;SDS011;3159;52.414;9.784;2023-11-19T06:02:56;6.27;;;4.27;;
6251;SDS011;3159;52.414;9.784;2023-11-19T06:05:22;10.20;;;5.43;;
6251;SDS011;3159;52.414;9.784;2023-11-19T06:07:49;6.17;;;5.00;;
6251;SDS011;3159;52.414;9.784;2023-11-19T06:10:16;8.93;;;5.47;;
6251;SDS011;3159;52.414;9.784;2023-11-19T06:12:45;8.53;;;5.20;;
6251;SDS011;3159;52.414;9.784;2023-11-19T06:15:12;9.03;;;5.30;;
6251;SDS011;3159;52.414;9.784;2023-11-19T06:17:39;10.53;;;4.97;;
6251;SDS011;3159;52.414;9.784;2023-11-19T06:20:06;9.73;;;5.40;;
6251;SDS011;3159;52.414;9.784;2023-11-19T06:22:34;10.10;;;5.33;;
6251;SDS011;3159;52.414;9.784;2023-11-19T06:25:01;8.43;;;4.63;;
6251;SDS011;3159;52.414;9.784;2023-11-19T06:27:32;15.53;;;5.23;;
6251;SDS011;3159;52.414;9.784;2023-11-19T06:30:00;7.07;;;4.67;;
6251;SDS011;3159;52.414;9.784;2023-11-19T06:32:27;7.83;;;4.10;;
6251;SDS011;3159;52.414;9.784;2023-11-19T06:34:54;9.23;;;4.33;;
6251;SDS011;3159;52.414;9.784;2023-11-19T06:37:22;9.70;;;4.60;;
6251;SDS011;3159;52.414;9.784;2023-11-19T06:39:48;9.40;;;4.53;;
6251;SDS011;3159;52.414;9.784;2023-11-19T06:42:15;9.57;;;4.20;;
6251;SDS011;3159;52.414;9.784;2023-11-19T06:44:42;16.47;;;4.40;;
6251;SDS011;3159;52.414;9.784;2023-11-19T06:47:11;7.80;;;3.73;;
6251;SDS011;3159;52.414;9.784;2023-11-19T06:49:37;15.40;;;4.13;;
6251;SDS011;3159;52.414;9.784;2023-11-19T06:52:04;8.10;;;3.53;;
6251;SDS011;3159;52.414;9.784;2023-11-19T06:54:31;11.97;;;4.13;;
6251;SDS011;3159;52.414;9.784;2023-11-19T06:56:58;8.20;;;3.53;;
6251;SDS011;3159;52.414;9.784;2023-11-19T06:59:25;6.30;;;3.23;;
6251;SDS011;3159;52.414;9.784;2023-11-19T07:01:51;9.20;;;4.03;;
6251;SDS011;3159;52.414;9.784;2023-11-19T07:04:20;7.00;;;3.33;;
6251;SDS011;3159;52.414;9.784;2023-11-19T07:06:46;11.00;;;3.80;;
6251;SDS011;3159;52.414;9.784;2023-11-19T07:09:14;11.77;;;3.50;;
6251;SDS011;3159;52.414;9.784;2023-11-19T07:11:41;9.63;;;3.67;;
6251;SDS011;3159;52.414;9.784;2023-11-19T07:14:09;13.60;;;3.53;;
6251;SDS011;3159;52.414;9.784;2023-11-19T07:16:36;12.00;;;3.90;;
6251;SDS011;3159;52.414;9.784;2023-11-19T07:19:04;13.27;;;3.93;;
6251;SDS011;3159;52.414;9.784;2023-11-19T07:21:32;9.87;;;3.93;;
6251;SDS011;3159;52.414;9.784;2023-11-19T07:23:59;11.70;;;3.30;;
6251;SDS011;3159;52.414;9.784;2023-11-19T07:26:26;12.57;;;3.70;;
6251;SDS011;3159;52.414;9.784;2023-11-19T07:28:53;12.60;;;3.33;;
6251;SDS011;3159;52.414;9.784;2023-11-19T07:31:20;10.97;;;3.30;;
6251;SDS011;3159;52.414;9.784;2023-11-19T07:33:49;11.00;;;2.77;;
6251;SDS011;3159;52.414;9.784;2023-11-19T07:36:15;15.83;;;3.63;;
6251;SDS011;3159;52.414;9.784;2023-11-19T07:38:45;17.27;;;3.40;;
6251;SDS011;3159;52.414;9.784;2023-11-19T07:41:12;12.73;;;3.23;;
6251;SDS011;3159;52.414;9.784;2023-11-19T07:43:39;17.20;;;3.73;;
6251;SDS011;3159;52.414;9.784;2023-11-19T07:46:10;9.60;;;3.40;;
6251;SDS011;3159;52.414;9.784;2023-11-19T07:48:38;9.97;;;2.90;;
6251;SDS011;3159;52.414;9.784;2023-11-19T07:51:05;15.10;;;4.73;;
6251;SDS011;3159;52.414;9.784;2023-11-19T07:53:32;14.53;;;3.33;;
6251;SDS011;3159;52.414;9.784;2023-11-19T07:56:00;16.80;;;3.50;;
6251;SDS011;3159;52.414;9.784;2023-11-19T07:58:27;13.30;;;2.63;;
6251;SDS011;3159;52.414;9.784;2023-11-19T08:00:54;14.13;;;3.43;;
6251;SDS011;3159;52.414;9.784;2023-11-19T08:03:20;20.37;;;4.47;;
6251;SDS011;3159;52.414;9.784;2023-11-19T08:05:48;18.30;;;3.50;;
6251;SDS011;3159;52.414;9.784;2023-11-19T08:08:14;16.17;;;3.67;;
6251;SDS011;3159;52.414;9.784;2023-11-19T08:10:41;12.97;;;3.67;;
6251;SDS011;3159;52.414;9.784;2023-11-19T08:13:10;16.53;;;3.87;;
6251;SDS011;3159;52.414;9.784;2023-11-19T08:15:37;13.33;;;3.80;;
6251;SDS011;3159;52.414;9.784;2023-11-19T08:18:05;12.43;;;3.43;;
6251;SDS011;3159;52.414;9.784;2023-11-19T08:20:32;18.27;;;3.83;;
6251;SDS011;3159;52.414;9.784;2023-11-19T08:22:59;15.13;;;3.83;;
6251;SDS011;3159;52.414;9.784;2023-11-19T08:25:26;14.30;;;3.67;;
6251;SDS011;3159;52.414;9.784;2023-11-19T08:27:53;17.43;;;3.53;;
6251;SDS011;3159;52.414;9.784;2023-11-19T08:30:21;10.03;;;2.93;;
6251;SDS011;3159;52.414;9.784;2023-11-19T08:32:48;19.53;;;3.83;;
6251;SDS011;3159;52.414;9.784;2023-11-19T08:35:14;17.23;;;3.47;;
6251;SDS011;3159;52.414;9.784;2023-11-19T08:37:41;17.20;;;3.70;;
6251;SDS011;3159;52.414;9.784;2023-11-19T08:40:10;13.37;;;3.60;;
6251;SDS011;3159;52.414;9.784;2023-11-19T08:42:37;24.37;;;4.20;;
6251;SDS011;3159;52.414;9.784;2023-11-19T08:45:05;18.57;;;4.13;;
6251;SDS011;3159;52.414;9.784;2023-11-19T08:47:33;16.30;;;4.50;;
6251;SDS011;3159;52.414;9.784;2023-11-19T08:50:00;17.83;;;4.13;;
6251;SDS011;3159;52.414;9.784;2023-11-19T08:52:29;16.87;;;4.03;;
6251;SDS011;3159;52.414;9.784;2023-11-19T08:54:55;15.37;;;3.70;;
6251;SDS011;3159;52.414;9.784;2023-11-19T08:57:22;23.57;;;4.77;;
6251;SDS011;3159;52.414;9.784;2023-11-19T08:59:49;22.90;;;4.77;;
6251;SDS011;3159;52.414;9.784;2023-11-19T09:02:16;24.37;;;4.17;;
6251;SDS011;3159;52.414;9.784;2023-11-19T09:04:44;16.60;;;4.60;;
6251;SDS011;3159;52.414;9.784;2023-11-19T09:07:11;15.23;;;4.10;;
6251;SDS011;3159;52.414;9.784;2023-11-19T09:09:38;16.23;;;4.20;;
6251;SDS011;3159;52.414;9.784;2023-11-19T09:12:06;18.77;;;3.73;;
6251;SDS011;3159;52.414;9.784;2023-11-19T09:14:33;17.53;;;4.20;;
6251;SDS011;3159;52.414;9.784;2023-11-19T09:16:59;17.53;;;3.73;;
6251;SDS011;3159;52.414;9.784;2023-11-19T09:19:27;19.03;;;5.20;;
6251;SDS011;3159;52.414;9.784;2023-11-19T09:21:55;17.57;;;4.93;;
6251;SDS011;3159;52.414;9.784;2023-11-19T09:24:21;19.63;;;4.13;;
6251;SDS011;3159;52.414;9.784;2023-11-19T09:26:48;16.00;;;4.17;;
6251;SDS011;3159;52.414;9.784;2023-11-19T09:29:15;14.60;;;3.83;;
6251;SDS011;3159;52.414;9.784;2023-11-19T09:31:42;20.73;;;5.00;;
6251;SDS011;3159;52.414;9.784;2023-11-19T09:34:09;18.53;;;4.10;;
6251;SDS011;3159;52.414;9.784;2023-11-19T09:36:35;16.17;;;4.23;;
6251;SDS011;3159;52.414;9.784;2023-11-19T09:39:03;18.73;;;4.43;;
6251;SDS011;3159;52.414;9.784;2023-11-19T09:41:33;12.90;;;3.90;;
6251;SDS011;3159;52.414;9.784;2023-11-19T09:44:00;18.23;;;3.80;;
6251;SDS011;3159;52.414;9.784;2023-11-19T09:46:26;20.70;;;4.70;;
6251;SDS011;3159;52.414;9.784;2023-11-19T09:48:55;18.77;;;4.37;;
6251;SDS011;3159;52.414;9.784;2023-11-19T09:51:24;18.23;;;4.53;;
6251;SDS011;3159;52.414;9.784;2023-11-19T09:53:51;16.13;;;4.07;;
6251;SDS011;3159;52.414;9.784;2023-11-19T09:56:19;17.93;;;4.23;;
6251;SDS011;3159;52.414;9.784;2023-11-19T09:58:47;20.33;;;4.60;;
6251;SDS011;3159;52.414;9.784;2023-11-19T10:01:14;18.90;;;4.40;;
6251;SDS011;3159;52.414;9.784;2023-11-19T10:03:41;15.07;;;4.07;;
6251;SDS011;3159;52.414;9.784;2023-11-19T10:06:09;17.77;;;3.80;;
6251;SDS011;3159;52.414;9.784;2023-11-19T10:08:37;19.80;;;4.03;;
6251;SDS011;3159;52.414;9.784;2023-11-19T10:11:05;24.20;;;4.50;;
6251;SDS011;3159;52.414;9.784;2023-11-19T10:13:33;22.57;;;4.20;;
6251;SDS011;3159;52.414;9.784;2023-11-19T10:16:03;21.77;;;4.30;;
6251;SDS011;3159;52.414;9.784;2023-11-19T10:18:33;25.13;;;4.83;;
6251;SDS011;3159;52.414;9.784;2023-11-19T10:21:03;20.40;;;4.80;;
6251;SDS011;3159;52.414;9.784;2023-11-19T10:23:30;17.97;;;4.90;;
6251;SDS011;3159;52.414;9.784;2023-11-19T10:26:01;18.27;;;4.70;;
6251;SDS011;3159;52.414;9.784;2023-11-19T10:28:39;21.90;;;4.50;;
6251;SDS011;3159;52.414;9.784;2023-11-19T10:31:09;16.63;;;4.63;;
6251;SDS011;3159;52.414;9.784;2023-11-19T10:33:36;22.67;;;4.53;;
6251;SDS011;3159;52.414;9.784;2023-11-19T10:36:03;20.97;;;3.83;;
6251;SDS011;3159;52.414;9.784;2023-11-19T10:38:30;22.00;;;4.20;;
6251;SDS011;3159;52.414;9.784;2023-11-19T10:40:57;22.07;;;4.33;;
6251;SDS011;3159;52.414;9.784;2023-11-19T10:43:24;17.67;;;4.10;;
6251;SDS011;3159;52.414;9.784;2023-11-19T10:45:52;19.17;;;4.77;;
6251;SDS011;3159;52.414;9.784;2023-11-19T10:48:19;14.77;;;4.00;;
6251;SDS011;3159;52.414;9.784;2023-11-19T10:50:46;17.57;;;4.37;;
6251;SDS011;3159;52.414;9.784;2023-11-19T10:53:19;16.60;;;3.37;;
6251;SDS011;3159;52.414;9.784;2023-11-19T10:55:47;25.37;;;4.37;;
6251;SDS011;3159;52.414;9.784;2023-11-19T10:58:15;14.47;;;3.97;;
6251;SDS011;3159;52.414;9.784;2023-11-19T11:00:43;14.33;;;3.70;;
6251;SDS011;3159;52.414;9.784;2023-11-19T11:03:15;22.20;;;4.37;;
6251;SDS011;3159;52.414;9.784;2023-11-19T11:05:43;19.17;;;3.67;;
6251;SDS011;3159;52.414;9.784;2023-11-19T11:08:13;24.50;;;4.43;;
6251;SDS011;3159;52.414;9.784;2023-11-19T11:10:43;19.37;;;4.00;;
6251;SDS011;3159;52.414;9.784;2023-11-19T11:13:11;20.73;;;4.27;;
6251;SDS011;3159;52.414;9.784;2023-11-19T11:15:40;17.63;;;4.20;;
6251;SDS011;3159;52.414;9.784;2023-11-19T11:18:08;19.50;;;4.83;;
6251;SDS011;3159;52.414;9.784;2023-11-19T11:20:36;19.57;;;4.30;;
6251;SDS011;3159;52.414;9.784;2023-11-19T11:23:20;20.27;;;4.30;;
6251;SDS011;3159;52.414;9.784;2023-11-19T11:26:05;20.00;;;4.73;;
6251;SDS011;3159;52.414;9.784;2023-11-19T11:28:46;19.70;;;4.47;;
6251;SDS011;3159;52.414;9.784;2023-11-19T11:31:26;19.83;;;4.70;;
6251;SDS011;3159;52.414;9.784;2023-11-19T11:34:08;18.20;;;4.27;;
6251;SDS011;3159;52.414;9.784;2023-11-19T11:36:53;11.60;;;3.43;;
6251;SDS011;3159;52.414;9.784;2023-11-19T11:39:29;19.37;;;4.03;;
6251;SDS011;3159;52.414;9.784;2023-11-19T11:45:02;24.10;;;4.93;;
6251;SDS011;3159;52.414;9.784;2023-11-19T11:50:50;12.50;;;3.57;;
6251;SDS011;3159;52.414;9.784;2023-11-19T11:53:19;16.13;;;4.83;;
6251;SDS011;3159;52.414;9.784;2023-11-19T11:55:52;13.53;;;3.93;;
6251;SDS011;3159;52.414;9.784;2023-11-19T12:01:14;18.20;;;4.77;;
6251;SDS011;3159;52.414;9.784;2023-11-19T12:03:45;20.57;;;4.23;;
6251;SDS011;3159;52.414;9.784;2023-11-19T12:06:12;18.87;;;4.10;;
6251;SDS011;3159;52.414;9.784;2023-11-19T12:08:40;17.50;;;4.10;;
6251;SDS011;3159;52.414;9.784;2023-11-19T12:11:07;23.70;;;4.40;;
6251;SDS011;3159;52.414;9.784;2023-11-19T12:13:47;20.80;;;4.70;;
6251;SDS011;3159;52.414;9.784;2023-11-19T12:16:20;15.77;;;4.30;;
6251;SDS011;3159;52.414;9.784;2023-11-19T12:18:47;15.83;;;4.10;;
6251;SDS011;3159;52.414;9.784;2023-11-19T12:21:28;19.00;;;4.77;;
6251;SDS011;3159;52.414;9.784;2023-11-19T12:23:57;20.03;;;4.33;;
6251;SDS011;3159;52.414;9.784;2023-11-19T12:26:36;17.30;;;4.23;;
6251;SDS011;3159;52.414;9.784;2023-11-19T12:29:04;21.03;;;4.93;;
6251;SDS011;3159;52.414;9.784;2023-11-19T12:31:32;23.43;;;4.30;;
6251;SDS011;3159;52.414;9.784;2023-11-19T12:34:08;19.07;;;4.20;;
6251;SDS011;3159;52.414;9.784;2023-11-19T12:36:36;16.23;;;4.30;;
6251;SDS011;3159;52.414;9.784;2023-11-19T12:39:06;20.07;;;4.07;;
6251;SDS011;3159;52.414;9.784;2023-11-19T12:41:48;19.27;;;4.27;;
6251;SDS011;3159;52.414;9.784;2023-11-19T12:44:16;16.40;;;3.83;;
6251;SDS011;3159;52.414;9.784;2023-11-19T12:46:42;19.30;;;4.20;;
6251;SDS011;3159;52.414;9.784;2023-11-19T12:49:10;21.43;;;4.10;;
6251;SDS011;3159;52.414;9.784;2023-11-19T12:51:37;13.17;;;3.70;;
6251;SDS011;3159;52.414;9.784;2023-11-19T12:54:04;19.60;;;3.90;;
6251;SDS011;3159;52.414;9.784;2023-11-19T12:56:32;17.73;;;4.03;;
6251;SDS011;3159;52.414;9.784;2023-11-19T12:59:09;18.37;;;4.00;;
6251;SDS011;3159;52.414;9.784;2023-11-19T13:01:37;18.90;;;4.10;;
6251;SDS011;3159;52.414;9.784;2023-11-19T13:04:15;20.53;;;3.97;;
6251;SDS011;3159;52.414;9.784;2023-11-19T13:06:44;17.27;;;3.90;;
6251;SDS011;3159;52.414;9.784;2023-11-19T13:09:22;16.40;;;4.17;;
6251;SDS011;3159;52.414;9.784;2023-11-19T13:11:50;19.97;;;3.93;;
6251;SDS011;3159;52.414;9.784;2023-11-19T13:14:18;17.60;;;4.23;;
6251;SDS011;3159;52.414;9.784;2023-11-19T13:16:45;16.57;;;4.30;;
6251;SDS011;3159;52.414;9.784;2023-11-19T13:19:13;16.07;;;3.67;;
6251;SDS011;3159;52.414;9.784;2023-11-19T13:21:41;18.27;;;3.73;;
6251;SDS011;3159;52.414;9.784;2023-11-19T13:24:09;13.20;;;3.83;;
6251;SDS011;3159;52.414;9.784;2023-11-19T13:26:37;11.13;;;3.30;;
6251;SDS011;3159;52.414;9.784;2023-11-19T13:29:04;11.17;;;3.23;;
6251;SDS011;3159;52.414;9.784;2023-11-19T13:31:31;16.00;;;4.10;;
6251;SDS011;3159;52.414;9.784;2023-11-19T13:33:58;11.73;;;4.10;;
6251;SDS011;3159;52.414;9.784;2023-11-19T13:36:25;16.00;;;4.20;;
6251;SDS011;3159;52.414;9.784;2023-11-19T13:38:52;15.53;;;3.77;;
6251;SDS011;3159;52.414;9.784;2023-11-19T13:41:23;14.23;;;3.83;;
6251;SDS011;3159;52.414;9.784;2023-11-19T13:43:52;12.67;;;3.77;;
6251;SDS011;3159;52.414;9.784;2023-11-19T13:46:20;16.13;;;3.70;;
6251;SDS011;3159;52.414;9.784;2023-11-19T13:48:47;16.97;;;4.13;;
6251;SDS011;3159;52.414;9.784;2023-11-19T13:51:14;16.40;;;4.70;;
6251;SDS011;3159;52.414;9.784;2023-11-19T13:53:41;14.33;;;4.43;;
6251;SDS011;3159;52.414;9.784;2023-11-19T13:56:09;18.40;;;4.70;;
6251;SDS011;3159;52.414;9.784;2023-11-19T13:58:36;18.73;;;4.97;;
6251;SDS011;3159;52.414;9.784;2023-11-19T14:01:05;18.50;;;4.03;;
6251;SDS011;3159;52.414;9.784;2023-11-19T14:03:32;17.57;;;4.67;;
6251;SDS011;3159;52.414;9.784;2023-11-19T14:05:59;23.70;;;5.53;;
6251;SDS011;3159;52.414;9.784;2023-11-19T14:08:25;19.87;;;4.73;;
6251;SDS011;3159;52.414;9.784;2023-11-19T14:10:52;16.27;;;4.27;;
6251;SDS011;3159;52.414;9.784;2023-11-19T14:13:21;24.57;;;7.10;;
6251;SDS011;3159;52.414;9.784;2023-11-19T14:15:48;15.53;;;5.73;;
6251;SDS011;3159;52.414;9.784;2023-11-19T14:18:17;24.30;;;5.13;;
6251;SDS011;3159;52.414;9.784;2023-11-19T14:20:44;14.77;;;3.53;;
6251;SDS011;3159;52.414;9.784;2023-11-19T14:23:11;19.20;;;5.07;;
6251;SDS011;3159;52.414;9.784;2023-11-19T14:25:38;14.50;;;4.67;;
6251;SDS011;3159;52.414;9.784;2023-11-19T14:28:05;15.30;;;4.50;;
6251;SDS011;3159;52.414;9.784;2023-11-19T14:30:32;22.37;;;5.30;;
6251;SDS011;3159;52.414;9.784;2023-11-19T14:32:59;22.07;;;4.63;;
6251;SDS011;3159;52.414;9.784;2023-11-19T14:35:28;16.10;;;5.10;;
6251;SDS011;3159;52.414;9.784;2023-11-19T14:37:55;21.07;;;4.60;;
6251;SDS011;3159;52.414;9.784;2023-11-19T14:40:22;18.40;;;4.27;;
6251;SDS011;3159;52.414;9.784;2023-11-19T14:42:48;20.47;;;6.63;;
6251;SDS011;3159;52.414;9.784;2023-11-19T14:45:15;18.00;;;6.57;;
6251;SDS011;3159;52.414;9.784;2023-11-19T14:47:42;21.23;;;8.50;;
6251;SDS011;3159;52.414;9.784;2023-11-19T14:50:10;19.43;;;4.70;;
6251;SDS011;3159;52.414;9.784;2023-11-19T14:52:38;15.93;;;6.07;;
6251;SDS011;3159;52.414;9.784;2023-11-19T14:55:05;26.73;;;11.20;;
6251;SDS011;3159;52.414;9.784;2023-11-19T14:57:34;25.47;;;6.93;;
6251;SDS011;3159;52.414;9.784;2023-11-19T15:00:04;17.33;;;6.00;;
6251;SDS011;3159;52.414;9.784;2023-11-19T15:02:37;10.20;;;4.57;;
6251;SDS011;3159;52.414;9.784;2023-11-19T15:05:05;13.50;;;5.23;;
6251;SDS011;3159;52.414;9.784;2023-11-19T15:07:34;10.93;;;3.90;;
6251;SDS011;3159;52.414;9.784;2023-11-19T15:10:03;16.57;;;5.67;;
6251;SDS011;3159;52.414;9.784;2023-11-19T15:12:34;11.93;;;4.20;;
6251;SDS011;3159;52.414;9.784;2023-11-19T15:15:04;18.47;;;5.80;;
6251;SDS011;3159;52.414;9.784;2023-11-19T15:17:33;12.33;;;5.33;;
6251;SDS011;3159;52.414;9.784;2023-11-19T15:20:00;13.40;;;5.00;;
6251;SDS011;3159;52.414;9.784;2023-11-19T15:22:28;12.27;;;4.70;;